Time;durP1;ratioP1;P1;durP2;ratioP2;P2;SDS_P1;SDS_P2;PMS_P1;PMS_P2;Temp;Humidity;BMP_temperature;BMP_pressure;BME280_temperature;BME280_humidity;BME280_pressure;Samples;Min_cycle;Max_cycle;Signal;HPM_P1;HPM_P2
2023/01/01 00:01:27;;;;;;;2.28;2.08;;;;;;;4.91;96.92;99054.47;5064821;28;20028;-71
2023/01/01 00:03:54;;;;;;;0.50;0.50;;;;;;;4.99;96.97;99072.41;5064870;28;20043;-70
2023/01/01 00:06:20;;;;;;;0.73;0.73;;;;;;;4.96;97.23;99069.00;5064728;28;20464;-71
2023/01/01 00:08:46;;;;;;;0.47;0.47;;;;;;;4.99;96.98;99075.84;5065033;28;20016;-71
2023/01/01 00:11:12;;;;;;;0.50;0.50;;;;;;;5.00;96.99;99074.13;5064919;28;20457;-72
2023/01/01 00:13:39;;;;;;;1.67;1.58;;;;;;;5.03;96.89;99063.81;5064636;28;20031;-71
2023/01/01 00:16:06;;;;;;;0.50;0.50;;;;;;;5.02;97.06;99067.25;5064495;28;20025;-72
2023/01/01 00:18:31;;;;;;;0.93;0.93;;;;;;;5.05;97.02;99064.66;5064531;28;20081;-71
2023/01/01 00:21:05;;;;;;;0.88;0.88;;;;;;;5.08;96.82;99067.19;5064367;28;20021;-72
2023/01/01 00:23:30;;;;;;;0.40;0.40;;;;;;;5.00;97.12;99062.09;5064824;28;20028;-71
2023/01/01 00:25:57;;;;;;;0.75;0.75;;;;;;;5.01;96.98;99056.13;5063114;28;20024;-70
2023/01/01 00:28:22;;;;;;;0.90;0.90;;;;;;;5.03;97.14;99061.25;5064424;28;20033;-71
2023/01/01 00:30:47;;;;;;;1.00;0.95;;;;;;;5.01;96.97;99071.56;5064362;28;20021;-71
2023/01/01 00:33:13;;;;;;;0.40;0.40;;;;;;;5.02;97.12;99067.25;5064410;28;20021;-72
2023/01/01 00:35:38;;;;;;;0.50;0.50;;;;;;;5.01;97.16;99050.09;5064092;28;20489;-71
2023/01/01 00:38:03;;;;;;;2.80;2.65;;;;;;;5.03;96.81;99063.81;5062485;28;20025;-70
2023/01/01 00:40:29;;;;;;;0.60;0.60;;;;;;;5.03;96.86;99059.50;5064089;28;20021;-72
2023/01/01 00:42:54;;;;;;;0.50;0.50;;;;;;;5.05;96.86;99052.66;5064145;28;20036;-71
2023/01/01 00:45:20;;;;;;;0.50;0.50;;;;;;;5.05;97.06;99049.22;5064301;28;20032;-71
2023/01/01 00:47:45;;;;;;;0.40;0.40;;;;;;;5.06;97.03;99064.63;5064233;28;20028;-71
2023/01/01 00:50:11;;;;;;;0.50;0.50;;;;;;;5.07;97.08;99070.63;5063721;28;20040;-70
2023/01/01 00:52:36;;;;;;;0.50;0.50;;;;;;;5.00;97.01;99063.84;5064282;28;20029;-72
2023/01/01 00:55:02;;;;;;;0.50;0.50;;;;;;;5.04;97.10;99065.53;5064018;28;20025;-71
2023/01/01 00:57:27;;;;;;;0.50;0.50;;;;;;;5.00;97.27;99058.69;5064034;28;20021;-71
2023/01/01 00:59:52;;;;;;;0.50;0.50;;;;;;;5.01;97.06;99065.53;5062709;28;20025;-70
2023/01/01 01:02:18;;;;;;;0.40;0.40;;;;;;;5.02;97.11;99062.97;5064105;28;20021;-70
2023/01/01 01:04:43;;;;;;;0.98;0.98;;;;;;;5.06;97.23;99056.09;5063917;28;20100;-70
2023/01/01 01:07:09;;;;;;;0.50;0.50;;;;;;;5.04;97.01;99053.53;5064224;28;20017;-72
2023/01/01 01:09:34;;;;;;;0.50;0.50;;;;;;;5.01;97.09;99050.09;5063994;28;20036;-72
2023/01/01 01:11:59;;;;;;;0.50;0.50;;;;;;;5.08;96.94;99055.19;5064131;28;20025;-71
2023/01/01 01:14:25;;;;;;;0.50;0.50;;;;;;;5.06;97.15;99051.78;5064024;28;20033;-72
2023/01/01 01:16:50;;;;;;;0.50;0.50;;;;;;;5.12;97.06;99042.31;5063976;28;20100;-72
2023/01/01 01:19:18;;;;;;;0.50;0.50;;;;;;;5.11;97.15;99038.91;5063656;28;20366;-71
2023/01/01 01:21:46;;;;;;;0.43;0.43;;;;;;;5.18;97.34;99037.09;5063487;28;20052;-70
2023/01/01 01:24:11;;;;;;;0.52;0.52;;;;;;;5.20;97.23;99028.53;5063448;28;20060;-68
2023/01/01 01:26:37;;;;;;;0.50;0.50;;;;;;;5.17;97.37;99030.25;5063862;28;20032;-69
2023/01/01 01:29:03;;;;;;;0.43;0.43;;;;;;;5.14;97.26;99030.28;5063803;28;20040;-69
2023/01/01 01:31:31;;;;;;;0.50;0.50;;;;;;;5.13;97.21;99033.75;5063756;28;20063;-69
2023/01/01 01:33:56;;;;;;;0.50;0.50;;;;;;;5.15;97.57;99037.13;5063895;28;20024;-70
2023/01/01 01:36:23;;;;;;;0.50;0.50;;;;;;;5.16;97.30;99049.16;5063442;28;20051;-70
2023/01/01 01:38:48;;;;;;;0.50;0.50;;;;;;;5.21;97.11;99055.09;5063728;28;20029;-69
2023/01/01 01:41:16;;;;;;;0.50;0.50;;;;;;;5.21;97.31;99057.66;5063470;28;20021;-70
2023/01/01 01:43:41;;;;;;;0.50;0.50;;;;;;;5.21;97.35;99063.66;5063842;28;20044;-70
2023/01/01 01:46:15;;;;;;;0.40;0.40;;;;;;;5.24;96.96;99064.53;5063668;28;20047;-69
2023/01/01 01:48:44;;;;;;;0.50;0.50;;;;;;;5.29;97.08;99065.31;5063769;28;20017;-69
2023/01/01 01:51:13;;;;;;;0.50;0.50;;;;;;;5.24;97.17;99056.81;5066619;28;20059;-69
2023/01/01 01:53:53;;;;;;;0.50;0.50;;;;;;;5.30;96.90;99072.19;5066124;28;20063;-69
2023/01/01 01:56:25;;;;;;;0.50;0.50;;;;;;;5.32;97.02;99075.59;5067402;28;20013;-72
2023/01/01 01:58:50;;;;;;;0.60;0.60;;;;;;;5.27;96.79;99067.06;5067178;28;20457;-72
2023/01/01 02:01:16;;;;;;;0.60;0.60;;;;;;;5.23;96.63;99067.94;5067217;28;20025;-72
2023/01/01 02:03:52;;;;;;;0.50;0.50;;;;;;;5.23;96.89;99073.09;5067288;28;20029;-73
2023/01/01 02:06:19;;;;;;;0.57;0.57;;;;;;;5.22;96.96;99067.09;5067145;28;20025;-72
2023/01/01 02:08:45;;;;;;;0.50;0.50;;;;;;;5.19;96.94;99070.53;5067051;28;20420;-72
2023/01/01 02:11:10;;;;;;;0.50;0.50;;;;;;;5.16;96.95;99065.41;5066866;28;20025;-72
2023/01/01 02:13:36;;;;;;;0.50;0.50;;;;;;;5.15;96.98;99068.00;5066856;28;20074;-72
2023/01/01 02:16:01;;;;;;;0.50;0.50;;;;;;;5.16;97.19;99064.59;5065419;28;20035;-72
2023/01/01 02:18:53;;;;;;;0.50;0.50;;;;;;;5.20;97.07;99066.25;5066621;28;20021;-72
2023/01/01 02:21:24;;;;;;;0.50;0.50;;;;;;;5.18;97.10;99070.56;5057100;28;20044;-73
2023/01/01 02:24:12;;;;;;;0.40;0.40;;;;;;;5.27;97.01;99079.94;5066763;28;20033;-73
2023/01/01 02:26:47;;;;;;;0.50;0.50;;;;;;;5.28;97.06;99069.63;5066708;28;20029;-72
2023/01/01 02:29:18;;;;;;;0.40;0.40;;;;;;;5.35;97.17;99069.56;5065121;28;20132;-72
2023/01/01 02:31:55;;;;;;;0.50;0.50;;;;;;;5.30;97.02;99062.72;5066733;28;20080;-73
2023/01/01 02:34:26;;;;;;;0.95;0.95;;;;;;;5.29;96.96;99055.88;5066542;28;20024;-72
2023/01/01 02:36:55;;;;;;;0.50;0.50;;;;;;;5.27;96.94;99064.50;5066380;28;20044;-72
2023/01/01 02:39:25;;;;;;;0.50;0.50;;;;;;;5.19;96.98;99070.53;5066340;28;20021;-71
2023/01/01 02:41:53;;;;;;;0.50;0.50;;;;;;;5.18;96.66;99073.13;5066522;28;20016;-72
2023/01/01 02:44:21;;;;;;;0.45;0.45;;;;;;;5.17;96.58;99066.28;5066182;28;20021;-71
2023/01/01 02:46:47;;;;;;;0.50;0.50;;;;;;;5.18;96.80;99068.84;5066151;28;20029;-72
2023/01/01 02:49:12;;;;;;;0.47;0.47;;;;;;;5.16;96.32;99069.72;5065950;28;20067;-71
2023/01/01 02:51:45;;;;;;;0.50;0.50;;;;;;;5.12;96.42;99079.19;5066049;28;20063;-72
2023/01/01 02:54:25;;;;;;;0.82;0.82;;;;;;;5.08;96.72;99077.47;5066099;28;20298;-70
2023/01/01 02:57:08;;;;;;;0.43;0.43;;;;;;;5.06;96.37;99086.94;5066280;28;20076;-72
2023/01/01 03:03:07;;;;;;;0.50;0.50;;;;;;;5.00;96.42;99087.81;5066286;28;20043;-72
2023/01/01 03:06:21;;;;;;;0.50;0.50;;;;;;;5.03;96.24;99079.25;5065605;28;20066;-71
2023/01/01 03:08:38;;;;;;;0.45;0.45;;;;;;;5.04;96.28;99080.97;5065961;28;20021;-72
2023/01/01 03:11:09;;;;;;;0.50;0.50;;;;;;;4.98;96.25;99070.72;5065918;28;20025;-72
2023/01/01 03:14:00;;;;;;;0.50;0.50;;;;;;;5.01;96.38;99078.41;5066067;28;20024;-73
2023/01/01 03:16:42;;;;;;;0.60;0.60;;;;;;;5.02;96.05;99074.97;5065760;28;20024;-73
2023/01/01 03:19:10;;;;;;;0.55;0.55;;;;;;;5.03;96.11;99084.41;5065643;28;20056;-71
2023/01/01 03:22:00;;;;;;;0.50;0.50;;;;;;;4.96;96.08;99066.44;5065387;28;20029;-72
2023/01/01 03:24:37;;;;;;;0.50;0.50;;;;;;;5.00;96.19;99069.81;5065510;28;20028;-71
2023/01/01 03:27:08;;;;;;;0.50;0.50;;;;;;;4.95;96.05;99072.44;5065234;28;20082;-72
2023/01/01 03:29:38;;;;;;;0.50;0.50;;;;;;;4.98;96.01;99068.13;5065384;28;20021;-72
2023/01/01 03:32:06;;;;;;;0.47;0.47;;;;;;;4.96;96.05;99066.44;5065336;28;20013;-72
2023/01/01 03:34:37;;;;;;;0.50;0.50;;;;;;;4.99;96.23;99072.41;5064082;28;20085;-72
2023/01/01 03:37:14;;;;;;;0.50;0.50;;;;;;;4.98;95.69;99078.44;5065245;28;20029;-73
2023/01/01 03:39:46;;;;;;;1.08;1.08;;;;;;;4.99;95.40;99078.41;5065417;28;20029;-73
2023/01/01 03:42:20;;;;;;;0.47;0.47;;;;;;;4.96;95.38;99063.88;5065122;28;20086;-73
2023/01/01 03:45:02;;;;;;;0.50;0.50;;;;;;;4.96;95.09;99060.44;5065130;28;20331;-71
2023/01/01 03:47:28;;;;;;;0.75;0.75;;;;;;;5.02;94.98;99064.66;5064984;28;20020;-72
2023/01/01 03:49:56;;;;;;;0.50;0.50;;;;;;;5.06;95.18;99056.09;5063204;28;20088;-71
2023/01/01 03:52:30;;;;;;;0.50;0.50;;;;;;;5.13;95.37;99051.75;5064998;28;20020;-72
2023/01/01 03:55:23;;;;;;;0.50;0.50;;;;;;;5.12;95.83;99050.88;5065003;28;20040;-72
2023/01/01 03:58:19;;;;;;;0.50;0.50;;;;;;;5.06;95.54;99056.09;5065057;28;20341;-72
2023/01/01 04:00:57;;;;;;;0.47;0.47;;;;;;;5.06;95.68;99053.50;5064846;28;20080;-71
2023/01/01 04:03:26;;;;;;;0.50;0.50;;;;;;;5.12;95.80;99060.31;5065084;28;20025;-71
2023/01/01 04:05:51;;;;;;;0.50;0.50;;;;;;;5.13;95.82;99050.00;5064551;28;20033;-71
2023/01/01 04:08:17;;;;;;;0.50;0.50;;;;;;;5.12;95.98;99044.88;5064674;28;20052;-72
2023/01/01 04:10:47;;;;;;;0.50;0.50;;;;;;;5.14;96.12;99046.59;5063223;28;20089;-73
2023/01/01 04:13:13;;;;;;;0.50;0.50;;;;;;;5.16;96.02;99049.16;5063905;28;20048;-72
2023/01/01 04:15:38;;;;;;;0.50;0.50;;;;;;;5.12;95.94;99050.88;5064558;28;20416;-72
2023/01/01 04:18:04;;;;;;;0.40;0.40;;;;;;;5.11;95.98;99041.47;5064519;28;20024;-71
2023/01/01 04:20:30;;;;;;;0.50;0.50;;;;;;;5.11;96.07;99058.63;5064212;28;20024;-70
2023/01/01 04:22:59;;;;;;;0.50;0.50;;;;;;;5.07;95.97;99057.78;5063022;28;20631;-71
2023/01/01 04:25:26;;;;;;;0.50;0.50;;;;;;;5.02;96.08;99068.09;5064361;28;20029;-71
2023/01/01 04:27:51;;;;;;;0.50;0.50;;;;;;;5.03;95.79;99069.81;5064347;28;20033;-71
2023/01/01 04:30:17;;;;;;;0.40;0.40;;;;;;;5.02;96.17;99074.97;5064351;28;20028;-71
2023/01/01 04:32:43;;;;;;;0.43;0.43;;;;;;;5.03;96.17;99064.66;5064613;28;20025;-72
2023/01/01 04:35:11;;;;;;;0.50;0.50;;;;;;;5.05;96.23;99077.50;5063972;28;20029;-70
2023/01/01 04:37:38;;;;;;;0.50;0.50;;;;;;;5.01;96.13;99073.25;5064437;28;20492;-72
2023/01/01 04:40:05;;;;;;;0.40;0.40;;;;;;;5.02;96.33;99080.97;5064129;28;20028;-70
2023/01/01 04:42:30;;;;;;;0.50;0.50;;;;;;;5.02;96.10;99082.69;5064268;28;20032;-71
2023/01/01 04:44:55;;;;;;;0.50;0.50;;;;;;;5.00;96.30;99085.25;5064112;28;20028;-71
2023/01/01 04:47:21;;;;;;;0.50;0.50;;;;;;;5.00;96.18;99084.44;5064127;28;20033;-71
2023/01/01 04:49:47;;;;;;;0.50;0.50;;;;;;;4.98;96.27;99099.00;5063903;28;20072;-71
2023/01/01 04:52:12;;;;;;;0.50;0.50;;;;;;;4.91;96.22;99085.31;5063826;28;20025;-71
2023/01/01 04:54:37;;;;;;;0.50;0.50;;;;;;;5.02;96.36;99100.69;5063977;28;20027;-70
2023/01/01 04:57:03;;;;;;;0.50;0.50;;;;;;;4.99;96.00;99092.97;5064118;28;20025;-72
2023/01/01 04:59:30;;;;;;;0.50;0.50;;;;;;;4.89;96.10;99095.63;5063833;28;20472;-72
2023/01/01 05:01:55;;;;;;;0.50;0.50;;;;;;;4.92;96.29;99095.59;5063933;28;20031;-72
2023/01/01 05:04:21;;;;;;;0.50;0.50;;;;;;;4.98;96.43;99099.00;5063968;28;20021;-71
2023/01/01 05:06:46;;;;;;;0.47;0.47;;;;;;;4.96;96.10;99097.31;5062481;28;20044;-73
2023/01/01 05:09:12;;;;;;;0.50;0.50;;;;;;;4.92;95.89;99110.19;5063947;28;20025;-72
2023/01/01 05:11:37;;;;;;;0.50;0.50;;;;;;;4.86;96.01;99125.66;5063712;28;20029;-71
2023/01/01 05:14:03;;;;;;;0.50;0.50;;;;;;;4.90;95.91;99130.78;5063920;28;20025;-71
2023/01/01 05:16:34;;;;;;;0.50;0.50;;;;;;;4.85;96.01;99122.22;5063868;28;20025;-73
2023/01/01 05:19:00;;;;;;;0.50;0.50;;;;;;;4.84;96.13;99117.94;5063846;28;20037;-71
2023/01/01 05:21:30;;;;;;;0.40;0.40;;;;;;;4.86;95.96;99116.22;5063742;28;20045;-71
2023/01/01 05:23:58;;;;;;;0.50;0.50;;;;;;;4.83;96.09;99122.25;5065581;28;20100;-71
2023/01/01 05:26:27;;;;;;;0.50;0.50;;;;;;;4.80;96.29;99126.53;5066571;28;20028;-71
2023/01/01 05:28:53;;;;;;;0.50;0.50;;;;;;;4.82;96.13;99122.25;5067818;28;20028;-71
2023/01/01 05:31:21;;;;;;;0.50;0.50;;;;;;;4.76;96.27;99123.13;5066273;28;20029;-72
2023/01/01 05:33:47;;;;;;;0.40;0.40;;;;;;;4.76;96.31;99120.56;5066250;28;20059;-72
2023/01/01 05:36:25;;;;;;;0.50;0.50;;;;;;;4.73;96.30;99118.00;5066156;28;20029;-72
2023/01/01 05:38:51;;;;;;;0.50;0.50;;;;;;;4.71;96.19;99125.72;5067656;28;20032;-71
2023/01/01 05:41:18;;;;;;;0.50;0.50;;;;;;;4.75;96.15;99130.84;5067326;28;20032;-70
2023/01/01 05:43:44;;;;;;;0.50;0.50;;;;;;;4.67;96.12;99121.47;5067508;28;20025;-71
2023/01/01 05:46:16;;;;;;;0.50;0.50;;;;;;;4.66;96.25;99137.75;5067353;28;20539;-71
2023/01/01 05:48:42;;;;;;;0.60;0.60;;;;;;;4.67;96.22;99136.91;5065948;28;20024;-70
2023/01/01 05:51:10;;;;;;;0.50;0.50;;;;;;;4.64;96.42;99144.63;5067042;28;20055;-71
2023/01/01 05:53:36;;;;;;;0.50;0.50;;;;;;;4.58;96.37;99136.94;5067500;28;20033;-71
2023/01/01 05:56:02;;;;;;;0.50;0.50;;;;;;;4.64;96.47;99147.19;5067274;28;20040;-71
2023/01/01 05:58:29;;;;;;;0.50;0.50;;;;;;;4.65;96.25;99156.59;5067139;28;20081;-72
2023/01/01 06:00:55;;;;;;;0.50;0.50;;;;;;;4.61;96.28;99157.50;5067132;28;20120;-72
2023/01/01 06:03:21;;;;;;;0.50;0.50;;;;;;;4.64;96.27;99149.75;5067125;28;20029;-73
2023/01/01 06:05:47;;;;;;;0.50;0.50;;;;;;;4.67;96.13;99160.03;5066862;28;20048;-73
2023/01/01 06:08:12;;;;;;;0.50;0.50;;;;;;;4.62;96.29;99156.63;5067338;28;20108;-72
2023/01/01 06:10:38;;;;;;;0.50;0.50;;;;;;;4.62;96.21;99161.75;5066860;28;20021;-71
2023/01/01 06:13:04;;;;;;;0.50;0.50;;;;;;;4.58;96.13;99157.50;5066967;28;20469;-72
2023/01/01 06:15:29;;;;;;;0.50;0.50;;;;;;;4.49;95.82;99149.84;5066934;28;20428;-72
2023/01/01 06:17:56;;;;;;;0.50;0.50;;;;;;;4.47;95.75;99158.38;5067172;28;20075;-73
2023/01/01 06:20:21;;;;;;;0.50;0.50;;;;;;;4.44;95.43;99160.97;5066507;28;20035;-70
2023/01/01 06:22:46;;;;;;;0.50;0.50;;;;;;;4.42;94.98;99167.84;5066912;28;20024;-71
2023/01/01 06:25:12;;;;;;;0.50;0.50;;;;;;;4.36;94.63;99165.28;5066768;28;20029;-72
2023/01/01 06:27:38;;;;;;;0.47;0.47;;;;;;;4.26;94.26;99166.16;5065204;28;20052;-71
2023/01/01 06:30:07;;;;;;;0.50;0.50;;;;;;;4.16;94.41;99163.63;5066467;28;20021;-71
2023/01/01 06:32:33;;;;;;;0.50;0.50;;;;;;;4.15;94.80;99166.19;5066620;28;20207;-71
2023/01/01 06:34:58;;;;;;;3.92;1.52;;;;;;;4.15;94.92;99166.19;5065830;28;20025;-71
2023/01/01 06:37:24;;;;;;;0.50;0.50;;;;;;;4.15;95.41;99166.19;5066410;28;20108;-70
2023/01/01 06:39:49;;;;;;;0.50;0.50;;;;;;;4.15;95.62;99176.47;5066559;28;20032;-70
2023/01/01 06:42:15;;;;;;;0.50;0.50;;;;;;;4.07;95.93;99167.06;5066112;28;20021;-70
2023/01/01 06:44:41;;;;;;;0.40;0.40;;;;;;;4.16;95.91;99181.59;5066317;28;20051;-71
2023/01/01 06:47:06;;;;;;;0.50;0.50;;;;;;;4.25;95.97;99179.88;5066587;28;20021;-70
2023/01/01 06:49:31;;;;;;;0.50;0.50;;;;;;;4.28;95.91;99169.59;5066022;28;20074;-70
2023/01/01 06:51:57;;;;;;;0.43;0.43;;;;;;;4.30;95.87;99175.56;5066106;28;20029;-70
2023/01/01 06:54:22;;;;;;;0.50;0.50;;;;;;;4.29;95.52;99179.00;5066218;28;20028;-69
2023/01/01 06:56:48;;;;;;;0.50;0.50;;;;;;;4.28;95.76;99179.88;5065903;28;20111;-72
2023/01/01 06:59:15;;;;;;;0.40;0.40;;;;;;;4.31;95.80;99185.00;5066259;28;20047;-72
2023/01/01 07:01:40;;;;;;;0.50;0.50;;;;;;;4.31;95.69;99185.00;5065970;28;20025;-72
2023/01/01 07:04:09;;;;;;;0.40;0.40;;;;;;;4.28;95.61;99183.28;5066108;28;20381;-72
2023/01/01 07:06:35;;;;;;;0.50;0.50;;;;;;;4.25;95.48;99182.44;5065900;28;20092;-71
2023/01/01 07:09:01;;;;;;;0.50;0.50;;;;;;;4.17;95.40;99175.59;5065922;28;20029;-70
2023/01/01 07:11:27;;;;;;;0.50;0.50;;;;;;;4.19;95.56;99186.72;5065902;28;20021;-68
2023/01/01 07:13:53;;;;;;;0.50;0.50;;;;;;;4.21;95.47;99177.31;5065817;28;20032;-69
2023/01/01 07:16:19;;;;;;;0.50;0.50;;;;;;;4.17;94.81;99175.59;5065596;28;20021;-69
2023/01/01 07:18:45;;;;;;;0.50;0.50;;;;;;;4.06;94.45;99182.47;5065787;28;20029;-69
2023/01/01 07:21:31;;;;;;;0.50;0.50;;;;;;;4.02;94.98;99191.91;5065536;28;20108;-69
2023/01/01 07:24:03;;;;;;;0.50;0.50;;;;;;;4.01;95.46;99192.75;5065681;28;20024;-69
2023/01/01 07:26:29;;;;;;;0.60;0.60;;;;;;;4.03;95.74;99195.31;5065415;28;20088;-69
2023/01/01 07:28:55;;;;;;;0.50;0.50;;;;;;;4.06;95.79;99195.31;5065665;28;20107;-68
2023/01/01 07:31:21;;;;;;;0.50;0.50;;;;;;;4.08;95.76;99191.03;5065556;28;20476;-69
2023/01/01 07:33:46;;;;;;;0.50;0.50;;;;;;;4.11;95.96;99208.13;5065645;28;20045;-70
2023/01/01 07:36:12;;;;;;;0.50;0.50;;;;;;;4.12;96.15;99210.72;5065269;28;20039;-70
2023/01/01 07:38:38;;;;;;;0.50;0.50;;;;;;;4.10;95.94;99199.59;5065261;28;20187;-69
2023/01/01 07:41:04;;;;;;;0.40;0.40;;;;;;;4.06;95.88;99200.44;5065022;28;20029;-69
2023/01/01 07:43:29;;;;;;;0.50;0.50;;;;;;;4.12;95.99;99215.00;5065349;28;20055;-70
2023/01/01 07:45:55;;;;;;;0.50;0.50;;;;;;;4.13;95.51;99215.00;5065119;28;20514;-69
2023/01/01 07:48:21;;;;;;;0.50;0.50;;;;;;;4.09;95.48;99223.56;5065160;28;20021;-70
2023/01/01 07:50:46;;;;;;;0.50;0.50;;;;;;;4.04;95.82;99233.00;5064934;28;20049;-70
2023/01/01 07:53:11;;;;;;;0.45;0.45;;;;;;;4.03;95.80;99236.41;5065144;28;20021;-70
2023/01/01 07:55:37;;;;;;;0.50;0.50;;;;;;;4.05;95.81;99244.97;5063661;28;20025;-70
2023/01/01 07:58:03;;;;;;;0.50;0.50;;;;;;;3.98;95.87;99256.94;5063736;28;20017;-70
2023/01/01 08:00:29;;;;;;;0.50;0.50;;;;;;;4.00;95.77;99272.38;5064843;28;20029;-69
2023/01/01 08:02:54;;;;;;;0.50;0.50;;;;;;;4.00;95.55;99282.63;5065175;28;20025;-70
2023/01/01 08:05:19;;;;;;;0.50;0.50;;;;;;;3.94;95.71;99271.53;5063339;28;20124;-69
2023/01/01 08:07:47;;;;;;;0.45;0.45;;;;;;;3.95;95.73;99262.97;5065021;28;20013;-70
2023/01/01 08:10:12;;;;;;;0.50;0.50;;;;;;;3.91;95.90;99255.25;5064767;28;20025;-70
2023/01/01 08:12:38;;;;;;;0.50;0.50;;;;;;;3.92;95.81;99262.09;5064898;28;20031;-70
2023/01/01 08:15:04;;;;;;;0.50;0.50;;;;;;;3.82;95.82;99245.81;5064609;28;20031;-71
2023/01/01 08:17:29;;;;;;;0.50;0.50;;;;;;;3.88;95.87;99261.25;5064507;28;20102;-69
2023/01/01 08:19:54;;;;;;;0.40;0.40;;;;;;;3.88;95.92;99262.97;5063173;28;20120;-70
2023/01/01 08:22:20;;;;;;;0.50;0.50;;;;;;;3.89;96.14;99255.25;5064533;28;20037;-70
2023/01/01 08:24:45;;;;;;;0.50;0.50;;;;;;;3.89;95.24;99249.25;5064420;28;20036;-68
2023/01/01 08:27:15;;;;;;;0.50;0.50;;;;;;;3.79;94.89;99254.38;5064455;28;20021;-70
2023/01/01 08:29:41;;;;;;;0.50;0.50;;;;;;;3.68;94.14;99249.25;5064430;28;20028;-69
2023/01/01 08:32:07;;;;;;;0.50;0.50;;;;;;;3.57;94.17;99254.38;5064357;28;20499;-70
2023/01/01 08:34:32;;;;;;;0.40;0.40;;;;;;;3.50;94.34;99255.19;5064312;28;20033;-71
2023/01/01 08:36:58;;;;;;;0.50;0.50;;;;;;;3.49;94.86;99268.03;5064126;28;20033;-71
2023/01/01 08:39:24;;;;;;;0.50;0.50;;;;;;;3.51;95.25;99279.16;5063007;28;20099;-71
2023/01/01 08:41:50;;;;;;;0.50;0.50;;;;;;;3.46;95.38;99282.59;5064003;28;20024;-71
2023/01/01 08:44:15;;;;;;;0.40;0.40;;;;;;;3.51;95.55;99286.84;5064083;28;20467;-69
2023/01/01 08:46:40;;;;;;;0.50;0.50;;;;;;;3.55;95.72;99289.44;5064161;28;20081;-70
2023/01/01 08:49:06;;;;;;;4.40;2.63;;;;;;;3.60;95.90;99292.00;5064065;28;20025;-71
2023/01/01 08:51:31;;;;;;;0.50;0.50;;;;;;;3.64;96.00;99291.19;5063906;28;20098;-69
2023/01/01 08:53:57;;;;;;;0.50;0.50;;;;;;;3.66;95.97;99292.00;5064075;28;20024;-68
2023/01/01 08:56:22;;;;;;;0.50;0.50;;;;;;;3.66;95.80;99299.72;5064179;28;20092;-70
2023/01/01 08:58:48;;;;;;;0.50;0.50;;;;;;;3.68;95.69;99305.72;5063505;28;20283;-71
2023/01/01 09:01:13;;;;;;;0.50;0.50;;;;;;;3.70;95.79;99306.59;5064097;28;20085;-72
2023/01/01 09:03:39;;;;;;;0.50;0.50;;;;;;;3.70;95.91;99314.28;5062657;28;20021;-69
2023/01/01 09:06:05;;;;;;;0.50;0.50;;;;;;;3.71;95.92;99313.44;5063759;28;20028;-69
2023/01/01 09:08:30;;;;;;;0.50;0.50;;;;;;;3.69;96.02;99304.84;5064224;28;20021;-70
2023/01/01 09:11:00;;;;;;;0.50;0.50;;;;;;;3.71;95.54;99292.88;5063991;28;20099;-69
2023/01/01 09:13:26;;;;;;;0.50;0.50;;;;;;;3.75;94.72;99285.19;5063935;28;20036;-67
2023/01/01 09:15:52;;;;;;;0.43;0.43;;;;;;;3.63;94.45;99293.72;5063806;28;20178;-69
2023/01/01 09:18:17;;;;;;;0.50;0.50;;;;;;;3.53;94.44;99296.25;5063423;28;20059;-70
2023/01/01 09:20:43;;;;;;;0.50;0.50;;;;;;;3.46;94.64;99295.41;5063326;28;20036;-68
2023/01/01 09:23:10;;;;;;;0.50;0.50;;;;;;;3.42;94.92;99301.38;5062242;28;20025;-69
2023/01/01 09:25:35;;;;;;;0.50;0.50;;;;;;;3.40;95.16;99309.94;5063689;28;20468;-69
2023/01/01 09:28:06;;;;;;;0.50;0.50;;;;;;;3.45;95.04;99314.22;5063804;28;20023;-69
2023/01/01 09:30:33;;;;;;;0.50;0.50;;;;;;;3.40;94.75;99308.22;5063581;28;20032;-67
2023/01/01 09:32:58;;;;;;;0.50;0.50;;;;;;;3.30;95.25;99314.16;5063742;28;20028;-68
2023/01/01 09:35:24;;;;;;;0.93;0.93;;;;;;;3.34;95.12;99309.03;5063361;28;20396;-68
2023/01/01 09:37:49;;;;;;;0.50;0.50;;;;;;;3.29;95.17;99309.91;5063675;28;20025;-66
2023/01/01 09:40:58;;;;;;;0.50;0.50;;;;;;;3.30;95.06;99303.91;5063551;28;20021;-66
2023/01/01 09:43:51;;;;;;;0.50;0.50;;;;;;;3.27;95.21;99306.47;5063569;28;20032;-67
2023/01/01 09:46:17;;;;;;;0.50;0.50;;;;;;;3.17;95.50;99314.13;5063417;28;20380;-65
2023/01/01 09:48:55;;;;;;;0.50;0.50;;;;;;;3.07;96.04;99322.59;5063537;28;20009;-65
2023/01/01 09:51:21;;;;;;;0.50;0.50;;;;;;;3.04;96.05;99310.63;5063134;28;20036;-67
2023/01/01 09:53:58;;;;;;;0.50;0.50;;;;;;;3.08;96.12;99303.81;5063418;28;20043;-66
2023/01/01 09:56:26;;;;;;;0.50;0.50;;;;;;;3.16;95.89;99308.97;5063347;28;20025;-64
2023/01/01 09:58:54;;;;;;;0.50;0.50;;;;;;;3.07;96.02;99308.09;5063187;28;20037;-64
2023/01/01 10:01:22;;;;;;;0.50;0.50;;;;;;;2.98;95.94;99308.03;5063354;28;20016;-64
2023/01/01 10:04:11;;;;;;;0.50;0.50;;;;;;;2.98;96.29;99315.75;5063305;28;20480;-63
2023/01/01 10:06:45;;;;;;;0.50;0.50;;;;;;;2.94;95.60;99298.63;5062687;28;20048;-66
2023/01/01 10:09:40;;;;;;;0.50;0.50;;;;;;;2.90;96.11;99300.31;5063443;28;20025;-67
2023/01/01 10:12:17;;;;;;;0.90;0.90;;;;;;;2.84;95.90;99306.25;5066518;28;20215;-66
2023/01/01 10:14:52;;;;;;;0.50;0.50;;;;;;;2.88;95.85;99309.69;5066999;28;20033;-66
2023/01/01 10:17:33;;;;;;;0.50;0.50;;;;;;;2.79;96.53;99312.22;5066787;28;20094;-68
2023/01/01 10:20:06;;;;;;;0.50;0.50;;;;;;;2.81;96.28;99318.22;5067009;28;20021;-65
2023/01/01 10:22:43;;;;;;;0.50;0.50;;;;;;;2.77;96.34;99312.22;5066727;28;20025;-66
2023/01/01 10:25:21;;;;;;;0.50;0.50;;;;;;;2.85;95.91;99325.94;5066673;28;20067;-67
2023/01/01 10:27:51;;;;;;;0.50;0.50;;;;;;;2.78;95.74;99336.97;5065387;28;20025;-68
2023/01/01 10:30:22;;;;;;;0.50;0.50;;;;;;;2.77;95.99;99347.22;5066689;28;20031;-67
2023/01/01 10:32:49;;;;;;;0.60;0.60;;;;;;;2.79;95.84;99341.28;5065273;28;20084;-68
2023/01/01 10:35:21;;;;;;;0.50;0.50;;;;;;;2.62;96.46;99345.44;5066337;28;20025;-66
2023/01/01 10:37:48;;;;;;;0.60;0.60;;;;;;;2.73;96.63;99362.59;5066506;28;20092;-67
2023/01/01 10:40:22;;;;;;;0.50;0.50;;;;;;;2.76;96.60;99371.16;5066392;28;20093;-68
2023/01/01 10:42:50;;;;;;;0.50;0.50;;;;;;;2.76;96.78;99386.53;5064924;28;20021;-69
2023/01/01 10:45:22;;;;;;;0.50;0.50;;;;;;;2.78;97.08;99387.41;5066144;28;20133;-69
2023/01/01 10:48:10;;;;;;;0.50;0.50;;;;;;;2.80;96.86;99388.25;5066409;28;20063;-68
2023/01/01 10:51:00;;;;;;;0.50;0.50;;;;;;;2.76;96.57;99383.97;5065830;28;20132;-67
2023/01/01 10:53:29;;;;;;;0.50;0.50;;;;;;;2.78;95.93;99384.84;5066136;28;20032;-68
2023/01/01 10:55:59;;;;;;;0.50;0.50;;;;;;;2.80;95.25;99380.56;5066183;28;20032;-67
2023/01/01 10:58:51;;;;;;;0.50;0.50;;;;;;;2.79;94.48;99373.75;5064661;28;20075;-67
2023/01/01 11:01:16;;;;;;;0.60;0.60;;;;;;;2.70;93.84;99383.06;5066054;28;20369;-67
2023/01/01 11:04:06;;;;;;;0.50;0.50;;;;;;;2.55;94.12;99382.97;5065873;28;20573;-67
2023/01/01 11:06:42;;;;;;;0.50;0.50;;;;;;;2.40;95.25;99392.25;5065959;28;20360;-68
2023/01/01 11:09:35;;;;;;;0.50;0.50;;;;;;;2.44;95.08;99399.13;5065886;28;20017;-67
2023/01/01 11:12:06;;;;;;;0.50;0.50;;;;;;;2.29;94.95;99391.28;5065843;28;20032;-67
2023/01/01 11:14:48;;;;;;;0.50;0.50;;;;;;;2.18;95.37;99394.63;5065748;28;20020;-67
2023/01/01 11:17:20;;;;;;;0.60;0.60;;;;;;;2.15;95.57;99391.16;5065709;28;20025;-68
2023/01/01 11:19:48;;;;;;;0.50;0.50;;;;;;;2.05;95.81;99396.19;5065693;28;20025;-68
2023/01/01 11:22:37;;;;;;;0.50;0.50;;;;;;;2.01;96.01;99399.56;5065138;28;20021;-67
2023/01/01 11:25:15;;;;;;;0.50;0.50;;;;;;;1.91;95.68;99406.28;5062422;28;20033;-67
2023/01/01 11:27:40;;;;;;;0.50;0.50;;;;;;;1.92;95.97;99400.31;5065215;28;20032;-67
2023/01/01 11:30:22;;;;;;;0.50;0.50;;;;;;;1.91;95.36;99395.19;5065436;28;20103;-67
2023/01/01 11:32:53;;;;;;;0.50;0.50;;;;;;;1.81;95.63;99405.31;5065469;28;20085;-68
2023/01/01 11:35:22;;;;;;;0.50;0.50;;;;;;;1.75;95.76;99391.59;5063994;28;20032;-67
2023/01/01 11:37:49;;;;;;;0.50;0.50;;;;;;;1.73;95.43;99382.22;5065413;28;20025;-67
2023/01/01 11:40:23;;;;;;;0.50;0.50;;;;;;;1.72;95.32;99387.31;5065218;28;20040;-69
2023/01/01 11:42:55;;;;;;;0.50;0.50;;;;;;;1.61;95.64;99387.19;5065399;28;20448;-70
2023/01/01 11:45:42;;;;;;;0.47;0.47;;;;;;;1.56;96.28;99382.03;5065290;28;20032;-68
2023/01/01 11:48:27;;;;;;;0.50;0.50;;;;;;;1.51;96.67;99378.53;5065281;28;20578;-68
2023/01/01 11:50:55;;;;;;;0.50;0.50;;;;;;;1.56;96.92;99386.28;5063712;28;20052;-68
2023/01/01 11:53:23;;;;;;;0.50;0.50;;;;;;;1.61;96.49;99382.91;5064921;28;20031;-68
2023/01/01 11:56:01;;;;;;;0.57;0.57;;;;;;;1.51;96.46;99395.59;5065061;28;20021;-69